KDUB

Dubois Municipal Airport

Dubois, Wyoming, USA
METAR KDUB 180035Z AUTO 16006KT 10SM CLR 05/M04 A3033 RMK AO2
Observed Flight Rules
Oct-18 @ 00:35 UTC (16 minutes ago) Visual Flight Rules
Wind Visibility Clouds
160° at 6 knots 10 miles
  • Clear skies
Temperatures Readings
Current 5°C / 41°F
Dewpoint -4°C / 25°F
Humidity 53%
Altimeter 30.33" Hg
Pressure 1027 hPa
Elevation 2224
METAR KDUB 180035Z AUTO 16006KT 10SM CLR 05/M04 A3033 RMK AO2
Observed Flight Rules
Oct-18 @ 00:35 UTC
(16 minutes ago)
VFR
Wind Visibility
160° at 6 knots 10 miles
Clouds
  • Clear skies
Temperature Dewpoint
5°C / 41°F -4°C / 25°F
Humidity Altimeter Pressure
53% 30.33" Hg 1027 hPa